Time;durP1;ratioP1;P1;durP2;ratioP2;P2;SDS_P1;SDS_P2;PMS_P1;PMS_P2;Temp;Humidity;BMP_temperature;BMP_pressure;BME280_temperature;BME280_humidity;BME280_pressure;Samples;Min_cycle;Max_cycle;Signal;HPM_P1;HPM_P2
2022/02/04 00:09:20;;;;;;;21.23;10.10;;;;;;;10.84;67.51;101221.03;5017758;28;20054;-57
2022/02/04 00:27:55;;;;;;;;;;;;;;;10.76;67.29;101213.91;5019425;28;20060;-57
2022/02/04 00:30:29;;;;;;;16.80;8.38;;;;;;;10.82;66.88;101208.81;5021573;28;19924;-58
2022/02/04 00:32:58;;;;;;;15.05;8.40;;;;;;;10.79;66.81;101211.38;5018899;28;20405;-59
2022/02/04 00:35:48;;;;;;;17.42;8.32;;;;;;;10.72;67.09;101204.31;5019698;28;20048;-58
2022/02/04 00:38:27;;;;;;;14.68;8.27;;;;;;;10.75;67.44;101194.78;5020790;28;20047;-57
2022/02/04 00:40:59;;;;;;;16.85;8.55;;;;;;;10.73;67.34;101204.34;5007267;28;20048;-57
2022/02/04 00:43:25;;;;;;;14.63;8.23;;;;;;;10.78;67.57;101199.19;5008309;28;20627;-57
2022/02/04 00:45:57;;;;;;;16.10;8.20;;;;;;;10.81;67.28;101201.84;5017441;28;20139;-57
2022/02/04 00:49:02;;;;;;;15.10;8.40;;;;;;;10.81;67.24;101197.50;5011573;28;20048;-57
2022/02/04 01:26:43;;;;;;;12.43;5.40;;;;;;;10.96;66.22;101169.09;5018583;28;20043;-59
2022/02/04 01:29:10;;;;;;;11.30;5.10;;;;;;;11.03;66.45;101157.03;5024411;28;20054;-59
2022/02/04 01:31:35;;;;;;;13.35;5.07;;;;;;;10.97;66.67;101163.03;5023453;28;20041;-58
2022/02/04 01:34:01;;;;;;;15.50;5.82;;;;;;;10.80;66.93;101160.94;5021425;28;20503;-58
2022/02/04 01:36:26;;;;;;;11.90;5.35;;;;;;;10.81;67.10;101158.38;5014985;28;20412;-59
2022/02/04 01:38:52;;;;;;;16.30;5.43;;;;;;;10.92;66.74;101156.81;5019344;28;20132;-59
2022/02/04 01:41:17;;;;;;;14.55;5.40;;;;;;;10.86;67.15;101158.44;5028214;28;20076;-59
2022/02/04 01:43:43;;;;;;;15.27;4.93;;;;;;;10.94;67.13;101151.63;5026184;28;20048;-59
2022/02/04 01:46:10;;;;;;;13.15;5.47;;;;;;;10.94;67.15;101149.03;5023111;28;20037;-59
2022/02/04 01:48:36;;;;;;;12.82;4.95;;;;;;;10.90;67.29;101148.13;5014502;28;20641;-59
2022/02/04 01:51:04;;;;;;;13.90;4.80;;;;;;;11.01;66.98;101150.88;5024794;28;20056;-58
2022/02/04 01:53:30;;;;;;;12.30;4.65;;;;;;;10.99;67.05;101144.75;5023112;28;20098;-58
2022/02/04 01:56:02;;;;;;;9.13;4.93;;;;;;;10.94;67.04;101143.81;5021395;28;20041;-59
2022/02/04 01:58:28;;;;;;;10.68;4.55;;;;;;;11.02;66.72;101143.94;5018664;28;20246;-59
2022/02/04 02:00:53;;;;;;;12.48;4.90;;;;;;;11.02;66.97;101138.72;5007486;28;20365;-58
2022/02/04 02:03:19;;;;;;;12.40;4.72;;;;;;;11.00;66.98;101143.91;5022748;28;20060;-58
2022/02/04 02:05:45;;;;;;;16.25;5.15;;;;;;;10.98;67.25;101136.06;5004596;28;20119;-59
2022/02/04 02:08:13;;;;;;;13.25;4.63;;;;;;;10.95;67.36;101128.19;5020106;28;20192;-58
2022/02/04 02:10:38;;;;;;;11.30;4.40;;;;;;;10.96;67.51;101129.94;5014374;28;20617;-59
2022/02/04 02:13:15;;;;;;;9.80;4.43;;;;;;;11.04;67.03;101129.19;5024717;28;20040;-60
2022/02/04 02:50:15;;;;;;;11.13;3.67;;;;;;;10.97;66.75;101089.09;5021531;28;20033;-58
2022/02/04 02:55:32;;;;;;;14.05;3.85;;;;;;;11.08;66.37;101089.25;5019589;28;20074;-59
2022/02/04 03:00:35;;;;;;;10.95;3.72;;;;;;;11.10;66.51;101077.97;5020528;28;20035;-59
2022/02/04 03:03:06;;;;;;;9.88;3.63;;;;;;;11.09;66.63;101080.56;5023332;28;20396;-59
2022/02/04 03:05:32;;;;;;;12.25;3.60;;;;;;;11.03;66.98;101077.88;5022587;28;20129;-59
2022/02/04 03:07:57;;;;;;;12.68;3.38;;;;;;;10.98;66.89;101075.16;5024463;28;20547;-59
2022/02/04 03:10:24;;;;;;;9.07;3.35;;;;;;;11.05;66.45;101074.41;5015393;28;20094;-58
2022/02/04 03:12:50;;;;;;;12.32;3.50;;;;;;;10.99;66.13;101069.97;5022594;28;20062;-59
2022/02/04 03:15:15;;;;;;;12.65;3.38;;;;;;;10.96;66.67;101074.28;5022171;28;20106;-59
2022/02/04 03:17:43;;;;;;;12.45;3.08;;;;;;;10.98;66.66;101060.41;5021026;28;20070;-60
2022/02/04 03:20:11;;;;;;;10.52;2.92;;;;;;;11.02;66.29;101063.94;5028365;28;20403;-59
2022/02/04 03:22:37;;;;;;;7.30;2.88;;;;;;;11.04;66.15;101064.81;5015151;28;20075;-59
2022/02/04 03:25:07;;;;;;;8.85;2.85;;;;;;;10.97;66.50;101057.78;5027939;28;20037;-59
2022/02/04 03:27:41;;;;;;;8.75;2.83;;;;;;;11.02;66.31;101060.47;5022895;28;20040;-59
2022/02/04 03:30:14;;;;;;;8.05;2.40;;;;;;;11.01;66.48;101059.56;5019618;28;20056;-58
2022/02/04 03:32:45;;;;;;;7.68;2.42;;;;;;;11.08;65.70;101056.22;5014421;28;21880;-58
2022/02/04 03:35:10;;;;;;;10.50;2.50;;;;;;;11.08;65.83;101064.03;5024042;28;20483;-58
2022/02/04 03:37:35;;;;;;;14.07;2.88;;;;;;;11.16;65.99;101058.94;5022534;28;20064;-58
2022/02/04 03:40:01;;;;;;;12.23;2.55;;;;;;;11.07;66.16;101051.84;5022418;28;20041;-58
2022/02/04 03:42:26;;;;;;;12.15;2.38;;;;;;;11.13;65.95;101064.97;5016500;28;20229;-59
2022/02/04 03:44:51;;;;;;;9.63;2.30;;;;;;;11.08;66.25;101052.72;5017101;28;20072;-58
2022/02/04 03:47:17;;;;;;;12.95;2.40;;;;;;;11.14;66.23;101053.69;5024631;28;20078;-59
2022/02/04 03:49:42;;;;;;;9.13;2.22;;;;;;;11.13;66.41;101059.75;5020337;28;20040;-58
2022/02/04 03:52:07;;;;;;;9.68;2.50;;;;;;;11.17;66.19;101053.72;5024587;28;20493;-58
2022/02/04 03:54:33;;;;;;;15.02;2.80;;;;;;;11.17;66.27;101048.50;5013771;28;20158;-58
2022/02/04 03:56:58;;;;;;;11.63;2.72;;;;;;;11.23;65.79;101045.97;5023187;28;21160;-58
2022/02/04 03:59:26;;;;;;;13.00;2.40;;;;;;;11.21;66.23;101041.59;5026329;28;20503;-59
2022/02/04 04:01:52;;;;;;;9.85;2.22;;;;;;;11.19;66.03;101038.97;5003468;28;20539;-58
2022/02/04 04:04:18;;;;;;;13.80;2.60;;;;;;;11.24;66.09;101036.41;5019079;28;20598;-58
2022/02/04 04:06:43;;;;;;;11.18;2.67;;;;;;;11.15;66.48;101024.13;5015504;28;20053;-57
2022/02/04 04:09:09;;;;;;;9.43;2.50;;;;;;;11.26;66.22;101024.25;5006499;28;20519;-58
2022/02/04 04:11:34;;;;;;;10.52;2.58;;;;;;;11.27;65.94;101020.81;5021965;28;20109;-58
2022/02/04 04:14:00;;;;;;;11.13;2.55;;;;;;;11.23;66.49;101026.81;5020453;28;20041;-58
2022/02/04 04:16:25;;;;;;;16.98;2.28;;;;;;;11.17;66.60;101031.97;5001073;28;20068;-59
2022/02/04 04:18:51;;;;;;;11.02;2.30;;;;;;;10.94;67.59;101029.91;5020616;28;20695;-59
2022/02/04 04:21:16;;;;;;;9.73;2.10;;;;;;;11.11;67.36;101031.88;5021175;28;20045;-58
2022/02/04 04:23:41;;;;;;;9.27;2.17;;;;;;;11.16;66.69;101033.69;5018662;28;20554;-59
2022/02/04 04:26:07;;;;;;;9.10;2.13;;;;;;;11.24;66.72;101029.47;5014515;28;20124;-59
2022/02/04 04:28:32;;;;;;;9.55;2.03;;;;;;;11.14;66.54;101021.50;5013838;28;20091;-59
2022/02/04 04:30:57;;;;;;;9.60;2.47;;;;;;;11.14;66.55;101027.59;5018082;28;20040;-59
2022/02/04 04:33:23;;;;;;;8.18;1.88;;;;;;;11.22;66.16;101028.56;5013709;28;20061;-58
2022/02/04 04:35:48;;;;;;;6.95;2.00;;;;;;;11.18;66.34;101023.28;5021951;28;20123;-59
2022/02/04 04:41:14;;;;;;;11.90;2.30;;;;;;;11.15;66.24;101026.75;5024290;28;20040;-59
2022/02/04 05:29:51;;;;;;;8.05;2.00;;;;;;;11.01;65.90;100975.22;5021682;28;20290;-58
2022/02/04 05:32:17;;;;;;;5.38;1.95;;;;;;;11.10;65.69;100973.59;5019267;28;20049;-57
2022/02/04 05:34:45;;;;;;;6.03;2.15;;;;;;;10.90;66.20;100969.88;5020213;28;20069;-57
2022/02/04 05:37:12;;;;;;;9.48;2.47;;;;;;;10.82;66.32;100963.66;5028414;28;20135;-58
2022/02/04 05:39:46;;;;;;;5.82;2.42;;;;;;;11.06;65.74;100956.16;5020101;28;20071;-58
2022/02/04 05:42:19;;;;;;;7.47;2.45;;;;;;;10.96;65.85;100941.25;5028228;28;20087;-59
2022/02/04 05:44:49;;;;;;;7.97;2.50;;;;;;;11.00;66.28;100943.03;5022490;28;20044;-58
2022/02/04 05:47:17;;;;;;;7.43;2.67;;;;;;;10.99;66.26;100944.75;5020512;28;20068;-58
2022/02/04 05:49:58;;;;;;;10.10;2.75;;;;;;;11.01;65.82;100936.97;5026135;28;20064;-59
2022/02/04 05:52:27;;;;;;;7.30;2.60;;;;;;;11.08;65.32;100933.59;5020424;28;20036;-59
2022/02/04 05:57:40;;;;;;;8.68;2.95;;;;;;;11.03;65.94;100940.47;5018402;28;20041;-58
2022/02/04 06:02:57;;;;;;;5.93;3.10;;;;;;;11.05;65.94;100927.44;5017686;28;20185;-58
2022/02/04 06:08:24;;;;;;;5.90;3.10;;;;;;;11.02;65.63;100937.84;5023680;28;20041;-58
2022/02/04 06:13:37;;;;;;;7.00;3.08;;;;;;;10.94;66.16;100927.31;5017766;28;20064;-58
2022/02/04 06:24:22;;;;;;;9.40;4.28;;;;;;;10.95;66.62;100940.38;5026195;28;20148;-58
2022/02/04 06:26:51;;;;;;;8.27;4.57;;;;;;;10.93;66.77;100938.59;5021789;28;20121;-58
2022/02/04 06:29:16;;;;;;;10.98;5.68;;;;;;;11.02;66.64;100938.72;5025606;28;20041;-58
2022/02/04 06:31:42;;;;;;;10.40;6.00;;;;;;;11.00;66.64;100935.22;5023402;28;20083;-59
2022/02/04 06:34:07;;;;;;;11.13;7.20;;;;;;;11.08;66.66;100935.31;5014829;28;20902;-59
2022/02/04 06:36:32;;;;;;;11.70;7.47;;;;;;;10.97;67.43;100937.78;5021742;28;20040;-58
2022/02/04 06:38:58;;;;;;;12.30;7.55;;;;;;;10.89;67.32;100934.19;5018412;28;20152;-58
2022/02/04 06:41:23;;;;;;;12.50;7.50;;;;;;;10.87;67.52;100930.69;5025874;28;20045;-58
2022/02/04 06:43:49;;;;;;;11.07;7.50;;;;;;;10.88;67.55;100924.63;5020631;28;20044;-58
2022/02/04 06:46:17;;;;;;;16.17;7.85;;;;;;;10.88;67.92;100914.19;5015130;28;20046;-59
2022/02/04 06:48:48;;;;;;;12.50;7.93;;;;;;;10.94;67.30;100911.66;5017117;28;20049;-58
2022/02/04 06:51:13;;;;;;;13.30;7.95;;;;;;;10.83;68.11;100914.13;5020028;28;20508;-58
2022/02/04 06:53:39;;;;;;;13.95;8.27;;;;;;;10.88;67.90;100902.03;5024472;28;20055;-58
2022/02/04 06:56:04;;;;;;;14.82;8.20;;;;;;;10.83;68.22;100905.44;5001114;28;20118;-58
2022/02/04 06:58:29;;;;;;;14.95;8.10;;;;;;;10.91;68.03;100895.97;5019464;28;20044;-58
2022/02/04 07:00:56;;;;;;;14.75;8.45;;;;;;;10.91;68.07;100903.81;5021553;28;20036;-58
2022/02/04 07:03:21;;;;;;;15.68;7.95;;;;;;;10.90;68.24;100905.53;5021193;28;20171;-58
2022/02/04 07:05:58;;;;;;;12.93;8.32;;;;;;;10.90;68.02;100902.06;5023934;28;20531;-58
2022/02/04 07:11:14;;;;;;;;;;;;;;;10.81;68.51;100902.78;5022119;28;20043;-59
2022/02/04 07:16:32;;;;;;;13.70;7.72;;;;;;;11.03;67.80;100900.47;5002022;28;20126;-58
2022/02/04 07:21:41;;;;;;;13.30;8.32;;;;;;;11.03;67.75;100897.88;5028196;28;20562;-59
2022/02/04 07:24:07;;;;;;;15.32;9.50;;;;;;;11.04;67.67;100907.44;5017004;28;20044;-61
2022/02/04 07:26:32;;;;;;;14.98;9.20;;;;;;;11.07;67.94;100902.25;5015654;28;20114;-58
2022/02/04 07:28:59;;;;;;;13.50;9.13;;;;;;;11.08;67.73;100898.78;5019291;28;20578;-58
2022/02/04 07:31:27;;;;;;;14.30;9.48;;;;;;;11.12;67.49;100895.34;5022293;28;20131;-59
2022/02/04 07:34:06;;;;;;;14.27;9.68;;;;;;;11.21;67.42;100901.56;5010028;28;20060;-58
2022/02/04 07:41:50;;;;;;;16.80;10.10;;;;;;;11.11;67.60;100899.69;5024756;28;20321;-59
2022/02/04 07:44:17;;;;;;;14.88;10.00;;;;;;;11.22;67.44;100885.03;5010653;28;20075;-58
2022/02/04 07:46:42;;;;;;;14.88;9.30;;;;;;;11.14;67.51;100877.97;4996512;28;20170;-56
2022/02/04 07:49:08;;;;;;;14.75;9.55;;;;;;;11.17;67.99;100883.22;5008343;28;20029;-58
2022/02/04 07:51:34;;;;;;;13.45;9.10;;;;;;;11.10;67.63;100876.22;5008631;28;20095;-59
2022/02/04 07:53:59;;;;;;;12.90;9.00;;;;;;;11.25;67.23;100890.28;5005024;28;20437;-60
2022/02/04 07:56:25;;;;;;;13.32;8.88;;;;;;;11.21;67.67;100877.19;5017307;28;20291;-59
2022/02/04 07:59:06;;;;;;;13.80;9.02;;;;;;;11.38;66.89;100878.25;5001992;28;20136;-60
2022/02/04 08:01:31;;;;;;;13.15;8.90;;;;;;;11.30;66.99;100875.53;5025146;28;20058;-59
2022/02/04 08:06:42;;;;;;;12.40;8.13;;;;;;;11.43;66.69;100866.09;5015307;28;20433;-59
2022/02/04 08:14:18;;;;;;;13.45;8.10;;;;;;;11.15;67.52;100854.53;5020067;28;20426;-58
2022/02/04 08:19:34;;;;;;;11.70;8.15;;;;;;;11.37;66.32;100846.03;5024459;28;20099;-59
2022/02/04 08:27:37;;;;;;;12.38;7.10;;;;;;;11.38;66.29;100828.66;5015863;28;20037;-58
2022/02/04 08:59:50;;;;;;;10.85;6.72;;;;;;;11.71;65.57;100797.59;5002180;28;20059;-59
2022/02/04 09:02:31;;;;;;;9.50;6.35;;;;;;;11.73;65.67;100797.59;5019729;28;20037;-58
2022/02/04 09:04:58;;;;;;;9.90;6.82;;;;;;;11.66;65.99;100794.06;5016773;28;20437;-59
2022/02/04 09:07:27;;;;;;;11.35;6.75;;;;;;;11.76;65.80;100779.41;5020149;28;20396;-59
2022/02/04 09:09:57;;;;;;;10.98;6.93;;;;;;;11.83;65.23;100781.19;5021987;28;20073;-59
2022/02/04 09:21:08;;;;;;;10.70;6.55;;;;;;;11.88;64.68;100768.16;5014703;28;20583;-60
2022/02/04 09:23:30;;;;;;;12.90;6.82;;;;;;;11.86;64.84;100751.59;5019985;28;20083;-59
2022/02/04 09:25:55;;;;;;;9.20;5.95;;;;;;;12.08;64.36;100761.28;5017585;28;20272;-60
2022/02/04 09:28:21;;;;;;;10.10;6.25;;;;;;;12.10;64.11;100750.00;5012249;28;20057;-60
2022/02/04 09:30:47;;;;;;;9.43;6.38;;;;;;;12.35;63.83;100757.94;5015768;28;20164;-59
2022/02/04 09:33:13;;;;;;;8.50;5.93;;;;;;;12.69;62.36;100764.16;5020762;28;20323;-59
2022/02/04 09:35:39;;;;;;;8.80;6.25;;;;;;;12.60;62.26;100760.66;5017138;28;20409;-59
2022/02/04 09:38:05;;;;;;;9.60;5.50;;;;;;;12.37;62.55;100751.00;5023912;28;20069;-58
2022/02/04 09:40:31;;;;;;;8.18;5.50;;;;;;;12.53;62.44;100744.94;5014072;28;20040;-59
2022/02/04 09:42:56;;;;;;;8.32;5.28;;;;;;;12.62;62.72;100747.59;5019443;28;20804;-59
2022/02/04 09:45:26;;;;;;;7.43;5.50;;;;;;;12.53;63.04;100742.31;5014019;28;20575;-58
2022/02/04 09:47:57;;;;;;;8.70;5.57;;;;;;;12.66;62.68;100731.03;5011850;28;20077;-59
2022/02/04 09:50:25;;;;;;;11.15;6.10;;;;;;;12.46;64.03;100733.59;5013625;28;20492;-59
2022/02/04 10:17:58;;;;;;;9.82;6.53;;;;;;;12.09;63.75;100705.53;5017696;28;20091;-59
2022/02/04 10:20:24;;;;;;;9.20;6.50;;;;;;;12.28;63.83;100690.81;5016917;28;20128;-59
2022/02/04 10:22:50;;;;;;;9.95;6.25;;;;;;;12.43;63.26;100688.25;5019171;28;20029;-59
2022/02/04 10:25:16;;;;;;;9.45;6.35;;;;;;;12.26;63.38;100711.72;5015858;28;20583;-60
2022/02/04 10:27:45;;;;;;;9.10;5.93;;;;;;;12.19;63.27;100697.78;5016782;28;20049;-59
2022/02/04 10:30:13;;;;;;;8.77;5.78;;;;;;;12.28;62.81;100690.81;5017527;28;20033;-59
2022/02/04 10:32:47;;;;;;;8.63;5.63;;;;;;;12.32;62.89;100692.59;5015222;28;20067;-58
2022/02/04 10:35:33;;;;;;;9.30;5.40;;;;;;;12.22;62.58;100688.19;5019323;28;20325;-59
2022/02/04 10:38:24;;;;;;;11.07;5.63;;;;;;;12.43;62.03;100685.66;5017298;28;20045;-59
2022/02/04 10:41:00;;;;;;;8.38;5.60;;;;;;;12.43;62.09;100678.69;5023660;28;20106;-59
2022/02/04 10:51:45;;;;;;;7.65;5.15;;;;;;;12.65;60.82;100649.94;5019345;28;19924;-59
2022/02/04 11:02:39;;;;;;;9.13;5.20;;;;;;;12.12;61.68;100642.84;4971742;28;20053;-60
2022/02/04 11:05:20;;;;;;;8.90;5.40;;;;;;;12.10;61.54;100641.97;4974759;28;20049;-59
2022/02/04 11:10:56;;;;;;;9.63;5.38;;;;;;;12.14;61.63;100626.31;4934218;28;20187;-60
2022/02/04 11:54:54;;;;;;;;;;;;;;;12.09;61.78;100567.06;4978503;28;20061;-60
2022/02/04 11:57:22;;;;;;;8.88;4.97;;;;;;;11.95;63.21;100547.88;4979118;28;20211;-60
2022/02/04 11:59:50;;;;;;;9.27;5.32;;;;;;;11.89;63.13;100540.03;4975474;28;20073;-60
2022/02/04 12:02:30;;;;;;;8.38;5.28;;;;;;;11.82;63.83;100528.69;4977154;28;20061;-59
2022/02/04 12:05:07;;;;;;;9.00;5.00;;;;;;;11.83;64.56;100533.06;4975567;28;20050;-59
2022/02/04 12:08:08;;;;;;;8.50;5.43;;;;;;;11.67;65.43;100539.03;4971469;28;20062;-59
2022/02/04 12:10:42;;;;;;;13.35;6.00;;;;;;;11.52;66.24;100536.38;4965901;28;20045;-59
2022/02/04 12:13:10;;;;;;;11.18;5.70;;;;;;;11.35;67.00;100533.69;4977312;28;20061;-59
2022/02/04 12:15:43;;;;;;;8.95;5.72;;;;;;;11.35;67.13;100539.78;4977827;28;20483;-59
2022/02/04 12:18:19;;;;;;;9.55;5.88;;;;;;;11.17;67.88;100526.63;4959149;28;20038;-60
2022/02/04 12:20:50;;;;;;;13.98;5.80;;;;;;;11.00;69.17;100528.28;4974361;28;20072;-60
2022/02/04 12:25:57;;;;;;;9.73;5.25;;;;;;;10.75;70.39;100497.69;4976946;28;20042;-59
2022/02/04 12:28:36;;;;;;;11.48;5.20;;;;;;;10.89;69.44;100496.91;4962404;28;20091;-60
2022/02/04 12:31:10;;;;;;;7.75;4.88;;;;;;;10.97;69.47;100484.81;4965386;28;20069;-59
2022/02/04 12:33:42;;;;;;;15.13;5.72;;;;;;;10.82;70.26;100486.44;4973579;28;20038;-58
2022/02/04 12:36:19;;;;;;;9.13;5.38;;;;;;;10.88;70.18;100479.53;4976772;28;20520;-58
2022/02/04 12:38:46;;;;;;;13.52;5.20;;;;;;;10.93;70.28;100474.31;4961335;28;21049;-58
2022/02/04 12:41:24;;;;;;;11.85;5.00;;;;;;;10.89;70.13;100473.44;4972234;28;20244;-59
2022/02/04 12:43:53;;;;;;;9.45;4.68;;;;;;;10.86;70.50;100462.09;4977536;28;20064;-59
2022/02/04 12:46:19;;;;;;;9.25;4.93;;;;;;;10.76;70.44;100470.75;4973411;28;20192;-58
2022/02/04 12:49:05;;;;;;;14.80;5.00;;;;;;;10.84;70.34;100451.69;4958088;28;20121;-59
2022/02/04 12:52:28;;;;;;;10.60;4.82;;;;;;;10.74;70.97;100441.19;4978735;28;20046;-59
2022/02/04 12:54:28;;;;;;;8.75;4.65;;;;;;;10.72;71.03;100450.75;4966753;28;20541;-59
2022/02/04 12:57:28;;;;;;;8.32;4.80;;;;;;;10.82;70.34;100546.41;4977724;28;20050;-58
2022/02/04 13:02:33;;;;;;;7.43;1.08;;;;;;;10.01;66.07;100579.53;4967583;28;20567;-61
2022/02/04 13:07:55;;;;;;;8.47;1.10;;;;;;;8.96;65.14;100577.31;4978023;28;20057;-59
2022/02/04 13:10:28;;;;;;;6.05;1.05;;;;;;;8.65;67.05;100586.34;4971543;28;20088;-60
2022/02/04 13:13:00;;;;;;;8.57;0.63;;;;;;;8.35;68.58;100597.09;4980314;28;20037;-59
2022/02/04 13:15:28;;;;;;;4.63;0.60;;;;;;;8.19;69.45;100607.09;4960476;28;20279;-58
2022/02/04 13:17:54;;;;;;;8.07;0.60;;;;;;;8.09;70.29;100609.53;4962403;28;20113;-57
2022/02/04 13:20:22;;;;;;;5.47;0.90;;;;;;;8.17;70.18;100614.91;4971468;28;20444;-61
2022/02/04 13:22:58;;;;;;;2.20;0.40;;;;;;;7.85;69.89;100611.66;4959523;28;20753;-59
2022/02/04 13:25:45;;;;;;;2.05;0.40;;;;;;;7.97;69.71;100616.22;4976572;28;20038;-59
2022/02/04 13:28:21;;;;;;;4.00;0.50;;;;;;;7.85;70.11;100624.63;4978129;28;20100;-59
2022/02/04 13:31:01;;;;;;;4.60;0.60;;;;;;;7.79;70.00;100636.63;4978297;28;20046;-58
2022/02/04 13:33:42;;;;;;;4.97;0.40;;;;;;;7.75;70.00;100628.75;4979203;28;20132;-59
2022/02/04 13:44:38;;;;;;;5.28;0.70;;;;;;;7.92;69.99;100654.19;4970560;28;20416;-59
2022/02/04 13:47:24;;;;;;;3.33;0.40;;;;;;;7.73;69.75;100659.00;4982818;28;20065;-59
2022/02/04 13:57:52;;;;;;;1.60;0.40;;;;;;;7.73;69.17;100673.69;4980533;28;20468;-59
2022/02/04 14:01:25;;;;;;;2.15;0.38;;;;;;;7.72;69.92;100679.72;4977176;28;20113;-58
2022/02/04 14:03:19;;;;;;;2.25;0.40;;;;;;;7.72;69.91;100692.69;4972147;28;20558;-59
2022/02/04 14:06:07;;;;;;;2.63;0.70;;;;;;;7.57;70.07;100697.53;4976031;28;20053;-59
2022/02/04 14:08:59;;;;;;;2.83;0.60;;;;;;;7.67;69.96;100702.09;4976630;28;20048;-59
2022/02/04 14:11:32;;;;;;;2.65;0.50;;;;;;;7.62;70.30;100708.91;4975181;28;20037;-58
2022/02/04 14:13:58;;;;;;;6.35;0.40;;;;;;;7.73;70.26;100704.81;4963857;28;20058;-59
2022/02/04 14:16:25;;;;;;;3.17;0.63;;;;;;;7.69;70.28;100706.47;4964240;28;20556;-59
2022/02/04 14:18:50;;;;;;;1.48;0.38;;;;;;;7.69;70.77;100703.88;4971988;28;20042;-59
2022/02/04 14:21:16;;;;;;;2.28;0.50;;;;;;;7.79;70.55;100702.38;4988564;28;20338;-58
2022/02/04 14:23:46;;;;;;;4.45;0.40;;;;;;;7.94;70.30;100730.34;4970133;28;20516;-56
2022/02/04 14:26:21;;;;;;;1.35;0.28;;;;;;;7.92;70.21;100732.94;4981975;28;20096;-56
2022/02/04 14:31:22;;;;;;;1.70;0.70;;;;;;;7.90;69.76;100734.63;4982299;28;20052;-57
2022/02/04 14:50:08;;;;;;;6.10;0.73;;;;;;;7.94;69.09;100809.09;4982069;28;20766;-59
2022/02/04 15:01:17;;;;;;;4.15;0.43;;;;;;;7.85;69.42;100839.19;4965694;28;20105;-56
2022/02/04 15:03:50;;;;;;;2.47;0.68;;;;;;;7.78;69.56;100835.56;4972936;28;20489;-58
2022/02/04 15:06:25;;;;;;;6.25;0.70;;;;;;;7.82;69.78;100844.28;4979585;28;20666;-58
2022/02/04 15:08:52;;;;;;;3.78;0.70;;;;;;;7.96;69.66;100854.16;4979455;28;20310;-59
2022/02/04 15:11:19;;;;;;;3.83;0.80;;;;;;;8.04;69.69;100865.63;4974045;28;20121;-57
2022/02/04 15:13:47;;;;;;;4.70;0.60;;;;;;;7.90;69.76;100877.38;4983025;28;20044;-57
2022/02/04 15:16:13;;;;;;;1.70;0.60;;;;;;;7.88;69.37;100876.44;4978983;28;20050;-57
2022/02/04 15:18:40;;;;;;;1.73;0.50;;;;;;;7.80;69.36;100890.09;4975885;28;20439;-57
2022/02/04 15:21:12;;;;;;;11.05;0.68;;;;;;;7.64;69.34;100894.88;4981290;28;20049;-59
2022/02/04 15:23:39;;;;;;;2.22;0.45;;;;;;;7.66;69.35;100902.72;4965693;28;20042;-56
2022/02/04 15:26:07;;;;;;;2.85;0.40;;;;;;;7.56;68.96;100911.97;4978540;28;20059;-57
2022/02/04 15:28:42;;;;;;;2.17;0.47;;;;;;;7.47;69.83;100916.94;4977069;28;20124;-58
2022/02/04 15:31:16;;;;;;;4.85;0.50;;;;;;;7.66;69.66;100905.31;4980655;28;20164;-57
2022/02/04 15:33:44;;;;;;;2.53;0.50;;;;;;;7.69;69.48;100913.16;4948099;28;20170;-56
2022/02/04 15:36:10;;;;;;;2.72;0.60;;;;;;;7.71;69.36;100924.47;4979074;28;20046;-59
2022/02/04 15:38:35;;;;;;;5.47;0.68;;;;;;;7.78;69.88;100934.19;4959260;28;21033;-56
2022/02/04 15:41:01;;;;;;;5.20;0.70;;;;;;;7.77;69.41;100935.00;4966040;28;20046;-58
2022/02/04 15:43:30;;;;;;;6.05;0.47;;;;;;;7.83;69.42;100942.06;4976300;28;20038;-58
2022/02/04 15:51:44;;;;;;;5.60;0.80;;;;;;;7.90;69.25;100968.22;4979837;28;20337;-57
2022/02/04 15:59:27;;;;;;;7.35;1.00;;;;;;;7.61;67.30;101010.72;4975696;28;20323;-57
2022/02/04 16:04:26;;;;;;;7.97;1.00;;;;;;;7.18;68.13;101040.63;4978887;28;20135;-56
2022/02/04 16:06:52;;;;;;;10.85;1.30;;;;;;;7.10;68.60;101017.88;4979100;28;20145;-57
2022/02/04 16:09:20;;;;;;;8.15;1.10;;;;;;;7.18;68.47;101014.69;4979414;28;20037;-58
2022/02/04 16:14:24;;;;;;;4.15;1.20;;;;;;;7.00;68.68;101024.50;4974521;28;20635;-56
2022/02/04 16:17:18;;;;;;;6.13;1.00;;;;;;;6.89;68.70;101018.13;4981457;28;20038;-57
2022/02/04 16:20:06;;;;;;;6.65;1.30;;;;;;;6.84;68.85;101037.81;4974338;28;20076;-57
2022/02/04 16:22:57;;;;;;;7.85;1.50;;;;;;;6.83;69.68;101049.03;4959756;28;20038;-58
2022/02/04 16:30:44;;;;;;;14.40;1.70;;;;;;;7.12;69.61;101071.53;4976081;28;20120;-57
2022/02/04 16:33:10;;;;;;;12.25;2.40;;;;;;;7.07;69.04;101067.06;4980516;28;20136;-56
2022/02/04 16:35:35;;;;;;;8.30;1.60;;;;;;;7.18;68.88;101071.72;4980789;28;20085;-55
2022/02/04 16:38:04;;;;;;;10.60;2.80;;;;;;;7.14;68.39;101076.75;4976664;28;20148;-57
2022/02/04 16:40:34;;;;;;;9.95;2.00;;;;;;;7.16;68.08;101082.88;4956862;28;20047;-57
2022/02/04 16:43:01;;;;;;;10.50;2.30;;;;;;;7.09;68.32;101084.41;4963361;28;20137;-57
2022/02/04 16:45:27;;;;;;;12.15;2.50;;;;;;;7.00;67.79;101093.63;4948312;28;20042;-57
2022/02/04 16:47:52;;;;;;;10.20;2.40;;;;;;;7.07;67.90;101100.75;4975699;28;20108;-56
2022/02/04 16:50:21;;;;;;;13.48;2.80;;;;;;;7.05;68.01;101112.78;4980184;28;20080;-56
2022/02/04 16:52:49;;;;;;;10.30;3.03;;;;;;;7.03;67.93;101119.63;4959586;28;20120;-56
2022/02/04 16:55:15;;;;;;;13.48;2.83;;;;;;;7.10;67.58;101124.16;4977604;28;20073;-57
2022/02/04 16:57:40;;;;;;;15.10;3.65;;;;;;;7.22;67.66;101117.66;4958690;28;20042;-57
2022/02/04 17:00:26;;;;;;;12.68;3.55;;;;;;;7.36;67.95;101122.38;4984912;28;20044;-56
2022/02/04 17:02:54;;;;;;;8.50;3.28;;;;;;;7.44;67.75;101113.97;4980804;28;20141;-56
2022/02/04 17:05:22;;;;;;;8.73;3.20;;;;;;;7.53;67.46;101121.16;4960819;28;20052;-57
2022/02/04 17:07:56;;;;;;;16.13;3.55;;;;;;;7.53;67.23;101126.34;4982158;28;20150;-56
2022/02/04 17:10:31;;;;;;;11.65;3.30;;;;;;;7.49;67.28;101124.50;4978185;28;20559;-59
2022/02/04 17:13:00;;;;;;;11.75;3.85;;;;;;;7.43;67.37;101122.63;4978025;28;20396;-58
2022/02/04 17:15:30;;;;;;;24.60;6.80;;;;;;;7.45;67.18;101131.31;4986382;28;20587;-56
2022/02/04 17:17:56;;;;;;;21.65;8.88;;;;;;;7.45;67.67;101133.91;4981845;28;20108;-57
2022/02/04 17:20:23;;;;;;;14.73;5.78;;;;;;;7.53;67.38;101140.19;4974837;28;20050;-57
2022/02/04 17:22:48;;;;;;;29.55;12.38;;;;;;;7.61;67.33;101149.09;4984497;28;20045;-56
2022/02/04 17:25:14;;;;;;;66.07;24.88;;;;;;;7.63;67.37;101149.13;4982247;28;20054;-59
2022/02/04 17:27:42;;;;;;;24.83;8.13;;;;;;;7.73;67.40;101158.97;4974723;28;20123;-57
2022/02/04 17:30:10;;;;;;;14.68;5.13;;;;;;;7.73;68.01;101170.22;4982689;28;20809;-57
2022/02/04 17:32:36;;;;;;;12.75;3.97;;;;;;;7.73;67.32;101169.34;4977713;28;20303;-56
2022/02/04 17:35:02;;;;;;;14.25;3.83;;;;;;;7.80;66.11;101173.88;4973948;28;20030;-59
2022/02/04 17:37:28;;;;;;;13.63;4.47;;;;;;;7.89;66.45;101187.09;4969267;28;20034;-57
2022/02/04 17:39:55;;;;;;;15.05;4.68;;;;;;;7.93;66.21;101190.69;4979977;28;20042;-57
2022/02/04 17:42:25;;;;;;;20.55;4.45;;;;;;;7.92;66.36;101191.53;4972541;28;20685;-61
2022/02/04 17:44:51;;;;;;;13.80;4.32;;;;;;;7.96;65.97;101198.56;4980747;28;20121;-58
2022/02/04 17:47:17;;;;;;;15.68;4.85;;;;;;;8.01;66.41;101203.03;4982782;28;20626;-58
2022/02/04 17:49:59;;;;;;;18.85;5.18;;;;;;;7.91;66.19;101195.84;4985687;28;20474;-56
2022/02/04 17:52:40;;;;;;;16.17;5.25;;;;;;;7.86;66.96;101201.72;4960922;28;20449;-58
2022/02/04 17:55:17;;;;;;;13.63;4.97;;;;;;;7.93;66.77;101209.72;4978445;28;20077;-56
2022/02/04 17:57:54;;;;;;;38.75;12.13;;;;;;;8.06;66.86;101205.75;4983528;28;20051;-56
2022/02/04 18:08:21;;;;;;;13.33;4.30;;;;;;;8.27;65.93;101221.97;4968401;28;20453;-58
2022/02/04 18:10:46;;;;;;;19.58;5.18;;;;;;;8.30;65.49;101224.66;4976502;28;20660;-57
2022/02/04 18:13:12;;;;;;;18.02;5.10;;;;;;;8.27;65.50;101227.16;4980699;28;20128;-57
2022/02/04 18:15:42;;;;;;;17.52;4.70;;;;;;;8.19;65.58;101228.66;4962148;28;20038;-59
2022/02/04 18:18:11;;;;;;;13.48;4.60;;;;;;;8.21;65.58;101239.97;4980792;28;20089;-56
2022/02/04 18:20:37;;;;;;;12.95;3.85;;;;;;;8.15;64.78;101245.88;4975984;28;20049;-57